Main page
METAR-TAF:

METAR-TAF

Airports :

Aberdeen Airport

Aberdeen, Scotland

latitude: 57-12N, longitude: 002-13W, elevation: 65 m

Current weather observation

The report was made 41 minutes ago, at 06:50 UTC
Wind 1 kt from variable directions
Temperature -3°C
Humidity 93%
Pressure 990 hPa
Visibility 10 km or more

METAR: EGPD 240650Z AUTO VRB01KT 9999 NCD M03/M04 Q0990 NOSIG

Time: 07:31 (07:31 UTC)

Forecast

The report was made 2 hours and 37 minutes ago, at 04:54 UTC
Forecast valid from 24 at 06 UTC to 25 at 06 UTC
Wind 3 kt from variable directions
Visibility 10 km or more
Few clouds at a height of 4000 ft
Probability 30%
from 24 at 06 UTC to 24 at 09 UTC
Visibility: 7000 m
Probability 40% :
Temporary
from 24 at 14 UTC to 24 at 19 UTC
Visibility: 6000 m
rain showers,

TAF: EGPD 240454Z 2406/2506 VRB03KT 9999 FEW040 PROB30 2406/2409 7000 PROB40 TEMPO 2414/2419 6000 SHRA

Weather observations and forecasts of more than 4000 airports (METAR and TAF reports).

The available stations are represented by yellow and red dots on the map.

Hover mouse over dot to see the name of the station.

Then click to see weather observations and forecasts.

To change the map : click on the green buttons with a black cross to zoom in, on the green button with a dash to zoom out, or on the green arrows for adjacent maps.


METAR-TAF: